Flag for Germany

Past Weather in 53°32'59"N, 9°58'23"E, Germany — Yesterday and Last 2 Weeks

Currently: 61 °F. Sunny. (Weather station: Hamburg-Fuhlsbuettel, Germany). See more current weather

Past Weather in 53°32'59"N, 9°58'23"E — Graph

°F

53°32'59"N, 9°58'23"E Temperature Yesterday

Maximum temperature yesterday: 82 °F (at 3:20 pm)
Minimum temperature yesterday: 55 °F (at 4:50 am)
Average temperature yesterday: 70 °F

High & Low Weather Summary for the Past Weeks

 TemperatureHumidityPressure
High84 °F (Jul 9, 4:50 pm)100% (Jul 11, 1:20 am)30.24 "Hg (Jul 11, 1:20 am)
Low50 °F (Jul 5, 5:50 am)42% (Jul 15, 7:20 pm)29.45 "Hg (Jul 6, 4:20 pm)
Average65 °F75%29.91 "Hg
* Reported Jul 5 5:20 am — Jul 20 5:20 am, 53°32'59"N, 9°58'23"E. Weather by CustomWeather, © 2024

Note: Actual official high and low records may vary slightly from our data, if they occured in-between our weather recording intervals... More about our weather records

53°32'59"N, 9°58'23"E Weather History for the Previous 24 Hours

Scroll right to see more
 ConditionsComfort  
Time TempWeatherWind HumidityBarometerVisibility
5:20 am
Sat, Jul 20
59 °FSunny.3 mph94%29.98 "Hg10 mi
4:50 am61 °FClear.2 mph83%29.98 "Hg10 mi
4:20 am61 °FClear.2 mph83%29.98 "Hg10 mi
3:50 am59 °FClear.2 mph88%30.01 "Hg10 mi
3:20 am61 °FClear.2 mph83%30.01 "Hg10 mi
2:50 am61 °FClear.2 mph83%30.01 "Hg10 mi
2:20 am61 °FClear.2 mph83%30.04 "Hg10 mi
1:50 am61 °FClear.2 mph88%30.04 "Hg10 mi
1:20 am63 °FClear.3 mph83%30.04 "Hg10 mi
12:50 am64 °FClear.5 mph73%30.04 "Hg10 mi
12:20 am64 °FClear.5 mph78%30.04 "Hg10 mi
11:50 pm
Fri, Jul 19
66 °FClear.6 mph73%30.07 "Hg10 mi
11:20 pm66 °FClear.6 mph78%30.07 "Hg10 mi
10:50 pm68 °FClear.7 mph78%30.07 "Hg10 mi
10:20 pm70 °FClear.7 mph73%30.07 "Hg10 mi
9:50 pm70 °FClear.8 mph73%30.04 "Hg10 mi
9:20 pm73 °FSunny.8 mph69%30.04 "Hg10 mi
8:20 pm75 °FSunny.7 mph65%30.04 "Hg10 mi
7:50 pm79 °FPassing clouds.6 mph54%30.07 "HgN/A
7:20 pm79 °FSunny.6 mph54%30.07 "Hg10 mi
6:50 pm77 °FPassing clouds.6 mph61%30.07 "HgN/A
6:20 pm79 °FPassing clouds.6 mph54%30.07 "HgN/A
5:50 pm79 °FPassing clouds.6 mph51%30.09 "HgN/A
5:20 pm81 °FPassing clouds.3 mph51%30.09 "HgN/A
4:50 pm79 °FPassing clouds.5 mph51%30.09 "HgN/A
4:20 pm79 °FSunny.2 mph61%30.09 "Hg10 mi
3:20 pm82 °FPassing clouds.5 mph48%30.12 "HgN/A
2:20 pm81 °FSunny.3 mph45%30.12 "Hg10 mi
1:50 pm81 °FSunny.5 mph45%30.12 "Hg10 mi
1:20 pm79 °FPassing clouds.6 mph51%30.12 "HgN/A
12:50 pm81 °FSunny.3 mph48%30.15 "Hg10 mi
12:20 pm79 °FPassing clouds.2 mph51%30.15 "HgN/A
11:50 am77 °FPassing clouds.3 mph57%30.15 "HgN/A
11:20 am79 °FSunny.3 mph51%30.15 "Hg10 mi
10:50 am77 °FSunny.3 mph61%30.15 "Hg10 mi
10:20 am75 °FSunny.2 mph65%30.15 "Hg10 mi
9:50 am75 °FPassing clouds.3 mph65%30.18 "HgN/A
9:20 am72 °FPassing clouds.3 mph69%30.18 "HgN/A
8:50 am70 °FPassing clouds.3 mph78%30.18 "HgN/A
8:20 am70 °FPassing clouds.3 mph73%30.18 "HgN/A
7:20 am64 °FSunny.2 mph83%30.18 "Hg10 mi
6:50 am61 °FSunny.2 mph94%30.18 "Hg10 mi
6:20 am57 °FSunny.1 mph100%30.18 "Hg10 mi
Weather by CustomWeather, © 2024

See weather overview